Latest Weather Observations for Wilcannia Airport

IDN60801

Issued at 2:05 pm EST Wednesday 3 September 2014 (issued every 30 minutes, with the page automatically refreshed every 10 minutes)

About weather observations | Map of weather stations | Latest weather observations for NSW | Other Formats
Station Details ID: 046012 Name: WILCANNIA AERODROME AWS Lat: -31.52 Lon: 143.38 Height: 94.3 m
Data from the previous 72 hours. | See also: Recent months for locations in New South Wales
Date/Time
EST
Temp
°C
App
Temp
°C
Dew
Point
Rel
Hum
%
Delta-T
°C
Wind Press
QNH
hPa
Press
MSL
hPa
Rain
since 9 am
mm
Dir
 
Spd
km/h
Gust
km/h
Spd
kts
Gust
kts
03/02:00pm 16.3 10.8 0.8 35 6.7 WSW 19 22 10 12 1021.2 1021.1 0.2
03/01:30pm 15.9 11.1 0.1 34 6.7 SSW 15 22 8 12 1021.4 1021.3 0.2
03/01:00pm 15.7 11.3 0.3 35 6.6 S 13 22 7 12 1021.7 1021.6 0.2
03/12:30pm 15.5 10.9 1.3 38 6.2 SSE 15 19 8 10 1022.1 1022.0 0.2
03/12:00pm 15.3 10.1 2.5 42 5.7 S 19 28 10 15 1022.8 1022.7 0.2
03/11:30am 14.6 10.4 4.0 49 4.9 S 15 22 8 12 1023.2 1023.1 0.2
03/11:00am 13.6 9.4 3.7 51 4.5 SSE 15 22 8 12 1023.6 1023.5 0.0
03/10:30am 13.0 9.1 3.4 52 4.3 SE 13 20 7 11 1023.7 1023.6 0.0
03/10:00am 12.7 8.9 3.9 55 4.0 SSE 13 19 7 10 1023.8 1023.7 0.0
03/09:30am 11.5 7.5 4.9 64 3.0 SE 15 20 8 11 1024.3 1024.1 0.0
03/09:00am 9.7 5.5 3.9 67 2.5 SSE 15 20 8 11 1024.6 1024.4 0.0
03/08:30am 8.6 4.9 4.2 74 1.9 S 13 20 7 11 1024.7 1024.5 0.0
03/08:00am 6.3 3.3 4.3 87 0.9 SSW 9 11 5 6 1024.3 1024.1 0.0
03/07:30am 4.4 1.3 3.4 93 0.4 SSW 9 11 5 6 1024.1 1023.9 0.0
03/07:00am 2.7 -1.1 1.8 94 0.3 SW 11 13 6 7 1023.6 1023.5 0.0
03/06:30am 2.5 -1.7 1.5 93 0.4 WSW 13 15 7 8 1023.4 1023.3 0.0
03/06:00am 2.6 -1.2 1.6 93 0.4 SW 11 11 6 6 1023.3 1023.2 0.0
03/05:30am 2.9 -0.9 1.7 92 0.5 SW 11 13 6 7 1023.1 - 0.0
03/05:00am 3.1 -0.7 1.9 92 0.5 SW 11 13 6 7 1022.7 1022.6 0.0
03/04:30am 3.3 -0.4 2.1 92 0.5 SW 11 13 6 7 1022.5 - 0.0
03/04:00am 3.9 0.2 2.6 91 0.5 SW 11 13 6 7 1022.3 1022.2 0.0
03/03:30am 4.0 0.0 2.8 92 0.5 SW 13 15 7 8 1022.1 - 0.0
03/03:00am 4.0 0.0 2.7 91 0.5 SW 13 13 7 7 1022.4 1022.3 0.0
03/02:30am 4.3 0.7 2.8 90 0.6 SW 11 13 6 7 1022.6 - 0.0
03/02:00am 4.6 1.0 2.9 89 0.7 SW 11 13 6 7 1022.9 1022.8 0.0
03/01:30am 4.8 0.8 3.1 89 0.7 WSW 13 15 7 8 1023.2 - 0.0
03/01:00am 4.7 1.1 3.0 89 0.7 WSW 11 13 6 7 1023.2 1023.1 0.0
03/12:30am 5.2 1.6 3.2 87 0.8 WSW 11 13 6 7 1023.4 - 0.0
03/12:00am 5.6 2.2 3.8 88 0.8 WSW 11 13 6 7 1023.1 1023.0 0.0
 
Date/Time
EST
Temp
°C
App
Temp
°C
Dew
Point
Rel
Hum
%
Delta-T
°C
Wind Press
QNH
hPa
Press
MSL
hPa
Rain
since 9 am
mm
Dir
 
Spd
km/h
Gust
km/h
Spd
kts
Gust
kts
02/11:30pm 5.7 2.2 3.4 85 1.0 WSW 11 13 6 7 1023.3 - 0.0
02/11:00pm 6.4 2.9 3.7 83 1.1 WSW 11 13 6 7 1023.3 1023.2 0.0
02/10:30pm 7.0 3.6 4.1 82 1.3 WSW 11 15 6 8 1023.4 - 0.0
02/10:00pm 7.4 3.7 4.5 82 1.3 W 13 13 7 7 1023.2 1023.1 0.0
02/09:30pm 7.4 3.7 4.4 81 1.3 W 13 15 7 8 1023.0 - 0.0
02/09:00pm 7.6 3.9 4.2 79 1.5 W 13 13 7 7 1023.0 1022.9 0.0
02/08:30pm 7.6 4.5 3.8 77 1.6 WSW 9 11 5 6 1022.8 - 0.0
02/08:00pm 8.4 5.3 3.5 71 2.1 WSW 9 11 5 6 1022.6 1022.5 0.0
02/07:30pm 9.7 5.9 3.7 66 2.6 SW 13 13 7 7 1022.4 - 0.0
02/07:00pm 11.2 7.4 3.7 60 3.3 SW 13 17 7 9 1022.1 1022.0 0.0
02/06:30pm 12.0 8.1 3.3 55 3.9 SSW 13 17 7 9 1021.8 - 0.0
02/06:00pm 13.7 8.4 2.9 48 4.8 SSW 20 28 11 15 1021.6 1021.5 0.0
02/05:30pm 15.0 9.0 3.2 45 5.4 SW 24 32 13 17 1021.2 - 0.0
02/05:00pm 14.3 9.0 3.2 47 5.0 SSW 20 32 11 17 1020.8 1020.7 0.0
02/04:30pm 15.7 10.3 4.4 47 5.3 S 22 30 12 16 1020.6 - 0.0
02/04:00pm 15.3 8.4 2.8 43 5.6 SSW 28 39 15 21 1020.4 1020.3 0.0
02/03:30pm 15.1 8.3 3.3 45 5.4 SSW 28 35 15 19 1020.2 - 0.0
02/03:00pm 14.9 9.5 4.6 50 4.8 SSW 22 33 12 18 1020.3 1020.2 0.0
02/02:30pm 13.9 8.6 5.0 55 4.2 SSW 22 28 12 15 1020.3 - 0.0
02/02:00pm 14.3 8.9 6.4 59 3.8 SSW 24 37 13 20 1020.6 1020.5 0.0
02/01:30pm 13.7 8.1 7.0 64 3.3 SSW 26 37 14 20 1020.7 - 0.0
02/01:00pm 13.1 7.7 6.5 64 3.2 SW 24 35 13 19 1021.0 1020.9 0.0
02/12:30pm 13.6 8.7 6.9 64 3.3 SSW 22 32 12 17 1021.3 - 0.0
02/12:00pm 12.3 6.8 6.1 66 2.9 SSW 24 33 13 18 1021.3 1021.2 0.0
02/11:30am 12.5 7.2 7.0 69 2.7 SW 24 33 13 18 1021.4 - 0.0
02/11:00am 12.6 6.6 7.1 69 2.7 SW 28 37 15 20 1021.5 1021.4 0.0
02/10:30am 12.8 6.8 7.0 68 2.8 SSW 28 39 15 21 1021.6 - 0.0
02/10:00am 11.4 6.1 6.7 73 2.2 SW 24 35 13 19 1021.4 1021.3 0.0
02/09:30am 11.2 5.8 7.9 80 1.6 SW 26 32 14 17 1021.4 - 0.0
02/09:00am 10.0 4.4 7.1 82 1.4 SW 26 37 14 20 1021.3 1021.2 4.6
02/08:30am 9.6 3.6 7.2 85 1.1 SW 28 37 15 20 1020.8 - 4.6
02/08:00am 9.0 3.1 7.3 89 0.8 SW 28 39 15 21 1020.3 1020.2 4.6
02/07:30am 8.6 2.9 6.9 89 0.8 SW 26 35 14 19 1019.7 - 4.6
02/07:00am 8.1 2.8 6.6 90 0.7 SW 24 32 13 17 1019.3 1019.2 4.6
02/06:30am 8.5 4.0 7.0 90 0.7 SW 20 30 11 16 1018.8 - 4.6
02/06:00am 8.5 3.6 7.0 90 0.7 SW 22 32 12 17 1018.2 1018.1 4.6
02/05:30am 8.6 4.2 7.4 92 0.6 SW 20 28 11 15 1017.9 - 4.6
02/05:00am 8.4 4.1 7.2 92 0.6 SW 19 26 10 14 1017.5 1017.4 4.6
02/04:30am 8.8 4.6 7.6 92 0.6 SW 19 32 10 17 1017.4 - 4.6
02/04:00am 9.5 5.3 8.3 92 0.6 WSW 20 28 11 15 1017.2 1017.1 4.4
02/03:30am 10.0 5.6 8.8 92 0.6 WSW 22 33 12 18 1017.1 - 4.4
02/03:00am 10.0 6.6 9.2 95 0.4 WSW 17 22 9 12 1017.0 1016.9 4.4
02/02:30am 9.9 6.9 9.1 95 0.4 WSW 15 19 8 10 1016.9 - 4.4
02/02:00am 10.1 6.7 9.3 95 0.4 WSW 17 19 9 10 1016.9 1016.8 4.4
02/01:30am 10.2 7.2 9.4 95 0.4 WSW 15 17 8 9 1016.8 - 4.4
02/01:00am 10.6 7.7 9.8 95 0.4 WSW 15 19 8 10 1016.8 1016.7 4.4
02/12:30am 10.8 8.4 9.9 94 0.5 WSW 13 17 7 9 1016.6 - 4.4
02/12:00am 11.1 8.7 10.0 93 0.6 WSW 13 17 7 9 1016.6 1016.5 4.4
 
Date/Time
EST
Temp
°C
App
Temp
°C
Dew
Point
Rel
Hum
%
Delta-T
°C
Wind Press
QNH
hPa
Press
MSL
hPa
Rain
since 9 am
mm
Dir
 
Spd
km/h
Gust
km/h
Spd
kts
Gust
kts
01/11:30pm 11.6 8.9 10.5 93 0.6 WSW 15 19 8 10 1016.7 - 4.4
01/11:00pm 12.0 9.5 10.9 93 0.6 WSW 15 19 8 10 1016.6 1016.5 4.4
01/10:30pm 12.2 10.5 11.1 93 0.6 SW 11 17 6 9 1016.2 - 4.4
01/10:00pm 12.1 10.0 11.0 93 0.6 SW 13 19 7 10 1016.2 1016.0 4.4
01/09:30pm 12.2 9.7 11.1 93 0.6 SSW 15 20 8 11 1016.1 - 4.2
01/09:00pm 12.4 10.3 11.3 93 0.6 SW 13 17 7 9 1015.8 1015.6 3.6
01/08:30pm 12.6 10.5 11.3 92 0.7 SW 13 17 7 9 1015.9 - 3.2
01/08:00pm 13.1 9.6 10.8 86 1.2 SW 20 28 11 15 1015.5 1015.3 0.8
01/07:30pm 15.8 11.2 8.3 61 3.8 SSW 22 32 12 17 1014.3 - 0.0
01/07:00pm 16.5 11.9 8.0 57 4.3 S 22 33 12 18 1013.3 1013.1 0.0
01/06:30pm 17.0 12.0 8.2 56 4.5 SSW 24 37 13 20 1013.7 - 0.0
01/06:00pm 17.5 11.3 7.8 53 4.9 SSW 30 39 16 21 1013.5 1013.3 0.0
01/05:30pm 18.2 11.4 6.7 47 5.8 SSW 32 41 17 22 1012.6 - 0.0
01/05:00pm 19.5 12.1 1.9 31 8.1 SSW 30 44 16 24 1011.8 1011.7 0.0
01/04:30pm 20.3 11.5 -0.9 24 9.3 SW 35 46 19 25 1011.6 - 0.0
01/04:00pm 21.7 13.2 -1.6 21 10.2 SW 33 48 18 26 1011.2 1011.1 0.0
01/03:30pm 24.7 16.0 -3.6 15 12.2 W 33 46 18 25 1010.6 - 0.0
01/03:00pm 25.6 17.9 -2.9 15 12.6 WNW 28 41 15 22 1010.7 1010.6 0.0
01/02:30pm 26.0 17.3 -3.5 14 12.9 WNW 33 46 18 25 1010.7 - 0.0
01/02:00pm 26.1 18.0 -3.5 14 12.9 NW 30 44 16 24 1011.0 1010.9 0.0
01/01:30pm 26.6 18.1 -3.1 14 13.1 NNW 32 43 17 23 1011.4 - 0.0
01/01:00pm 26.4 17.3 -3.2 14 13.0 NNW 35 48 19 26 1011.9 1011.8 0.0
01/12:43pm 25.8 16.7 -3.7 14 12.8 NNW 35 54 19 29 1012.0 - 0.0
01/12:30pm 25.4 16.0 -3.1 15 12.5 NNW 37 48 20 26 1012.4 - 0.0
01/12:00pm 25.3 16.7 -2.3 16 12.2 NNW 33 48 18 26 1013.2 1013.0 0.0
01/11:30am 24.6 16.1 -2.0 17 11.8 NNW 33 48 18 26 1013.6 - 0.0
01/11:00am 23.6 15.2 -1.3 19 11.1 NNW 33 43 18 23 1013.8 1013.6 0.0
01/10:30am 22.8 14.5 -0.6 21 10.5 N 33 44 18 24 1014.1 - 0.0
01/10:00am 22.2 14.1 -0.5 22 10.2 NNW 32 44 17 24 1014.4 1014.2 0.0
01/09:30am 20.7 13.9 0.5 26 9.1 N 26 35 14 19 1015.0 - 0.0
01/09:00am 19.2 12.7 0.3 28 8.4 N 24 33 13 18 1015.1 1015.1 0.0
01/08:30am 17.4 12.3 0.6 32 7.4 N 17 26 9 14 1015.0 - 0.0
01/08:00am 15.7 11.3 0.3 35 6.6 N 13 17 7 9 1015.2 1015.2 0.0
01/07:30am 14.1 10.2 1.4 42 5.5 N 11 15 6 8 1015.2 - 0.0
01/07:00am 11.7 7.4 0.8 47 4.6 N 13 15 7 8 1014.8 1014.8 0.0
01/06:30am 11.2 6.5 0.9 49 4.3 N 15 17 8 9 1014.4 - 0.0
01/06:00am 11.3 6.7 1.3 50 4.2 N 15 17 8 9 1013.9 1013.9 0.0
01/05:30am 9.8 5.1 1.2 55 3.6 NNE 15 17 8 9 1013.8 - 0.0
01/05:00am 11.8 7.3 0.0 44 4.9 NE 13 17 7 9 1013.7 1013.7 0.0
01/04:30am 15.0 9.7 -0.3 35 6.4 N 17 20 9 11 1013.8 - 0.0
01/04:00am 14.6 9.5 0.5 38 6.0 N 17 20 9 11 1013.9 1013.9 0.0
01/03:30am 14.4 9.7 1.0 40 5.8 N 15 19 8 10 1013.8 - 0.0
01/03:00am 13.6 9.3 0.9 42 5.4 N 13 15 7 8 1013.9 1013.9 0.0
01/02:30am 13.8 9.0 0.5 40 5.6 N 15 17 8 9 1013.9 - 0.0
01/02:00am 14.3 9.2 0.5 39 5.9 N 17 19 9 10 1014.3 1014.3 0.0
01/01:30am 15.2 9.6 -0.1 35 6.5 N 19 20 10 11 1014.7 - 0.0
01/01:00am 15.4 10.6 0.0 35 6.6 N 15 19 8 10 1014.8 1014.8 0.0
01/12:30am 15.9 10.7 0.1 34 6.8 N 17 19 9 10 1014.9 - 0.0
01/12:00am 15.3 10.5 0.3 36 6.4 N 15 17 8 9 1015.1 1015.1 0.0
 
Date/Time
EST
Temp
°C
App
Temp
°C
Dew
Point
Rel
Hum
%
Delta-T
°C
Wind Press
QNH
hPa
Press
MSL
hPa
Rain
since 9 am
mm
Dir
 
Spd
km/h
Gust
km/h
Spd
kts
Gust
kts
31/11:30pm 15.6 10.8 0.2 35 6.6 N 15 19 8 10 1015.2 - 0.0
31/11:00pm 15.4 10.7 0.8 37 6.3 N 15 17 8 9 1015.5 1015.5 0.0
31/10:30pm 14.3 10.5 1.6 42 5.5 N 11 13 6 7 1015.7 - 0.0
31/10:00pm 16.2 11.5 1.1 36 6.6 N 15 15 8 8 1015.8 1015.8 0.0
31/09:30pm 14.1 10.0 2.0 44 5.3 N 13 15 7 8 1015.9 - 0.0
31/09:00pm 13.3 9.1 1.9 46 5.0 NNE 13 15 7 8 1015.9 1015.9 0.0
31/08:30pm 14.0 9.6 0.6 40 5.7 N 13 15 7 8 1016.2 - 0.0
31/08:00pm 15.5 10.8 0.9 37 6.3 N 15 17 8 9 1016.3 1016.3 0.0
31/07:30pm 13.4 9.4 0.4 41 5.5 N 11 13 6 7 1016.3 - 0.0
31/07:00pm 15.2 11.5 -0.1 35 6.5 N 9 11 5 6 1016.1 1016.1 0.0
31/06:30pm 18.0 14.2 -0.8 28 8.1 NW 9 11 5 6 1016.0 - 0.0
31/06:00pm 21.2 17.5 -0.1 24 9.5 NNW 9 11 5 6 1015.7 1015.7 0.0
31/05:30pm 23.5 19.8 -0.1 21 10.8 NNW 9 19 5 10 1015.6 - 0.0
31/05:00pm 24.4 20.2 -0.7 19 11.4 N 11 17 6 9 1015.4 1015.4 0.0
31/04:30pm 23.5 18.6 -0.7 20 10.9 WNW 15 22 8 12 1015.6 - 0.0
31/04:00pm 24.8 19.1 0.3 20 11.4 NW 20 32 11 17 1015.8 1015.8 0.0
31/03:30pm 25.3 19.5 -1.5 17 12.1 NW 19 24 10 13 1016.0 - 0.0
31/03:00pm 24.7 19.6 -2.0 17 11.8 NW 15 24 8 13 1016.1 1016.1 0.0
31/02:30pm 24.7 20.6 -0.4 19 11.5 N 11 19 6 10 1016.4 - 0.0

Other Formats:

Comma delimited format used in spreadsheet applications
http://www.bom.gov.au/fwo/IDN60801/IDN60801.95695.axf

JavaScript Object Notation format (JSON) in row-major order
http://www.bom.gov.au/fwo/IDN60801/IDN60801.95695.json